Terminal Aerodrome Forecast
Issued by NWS

Home | Current Version | Previous Version | Text Only | Print | Product List | Glossary On
Versions: 1 2 3 4 5 6 7 8 9 10 11 12 13 14 15 16
058
FTUS45 KFGZ 280533
TAFGCN
TAF
KGCN 280533Z 2806/2906 VRB06KT P6SM SCT080 BKN120
     FM281800 11009KT P6SM SCT060 BKN100
      TEMPO 2819/2823 VRB15G25KT 4SM TSRA BKN040CB OVC080
     FM290200 VRB05KT P6SM VCSH SCT060 BKN100=

USA.gov is the U.S. government's official web portal to all federal, state and local government web resources and services.